Observation data for Lamesa on 07/11/2018      Previous  Date       Current Mesonet Observations  Soil Data  Daily Summary Page  Observations in Plain Language
KLES 110505Z 14005KT 24/17 A3014 RMK A01 T02440173  RH  068%=      5-min Rain = 0
KLES 110510Z 14005KT 24/17 A3014 RMK A01 T02430173  RH  068%=      5-min Rain = 0
KLES 110515Z 11004KT 24/17 A3014 RMK A01 T02390173  RH  070%=      5-min Rain = 0
KLES 110520Z 12005KT 24/17 A3014 RMK A01 T02350172  RH  072%=      5-min Rain = 0
KLES 110525Z 13005KT 23/17 A3014 RMK A01 T02330171  RH  072%=      5-min Rain = 0
KLES 110530Z 13005KT 23/17 A3014 RMK A01 T02330168  RH  070%=      5-min Rain = 0
KLES 110535Z 13005KT 23/17 A3014 RMK A01 T02330168  RH  070%=      5-min Rain = 0
KLES 110540Z 14005KT 23/17 A3014 RMK A01 T02330168  RH  070%=      5-min Rain = 0
KLES 110545Z 14005KT 23/17 A3014 RMK A01 T02330168  RH  070%=      5-min Rain = 0
KLES 110550Z 14005KT 23/17 A3014 RMK A01 T02330165  RH  069%=      5-min Rain = 0
KLES 110555Z 14005KT 23/16 A3014 RMK A01 T02340160  RH  066%=      5-min Rain = 0
KLES 110600Z 15005KT 24/16 A3014 RMK A01 T02350156  RH  064%=      5-min Rain = 0
KLES 110605Z 15005KT 24/15 A3014 RMK A01 T02350153  RH  063%=      5-min Rain = 0
KLES 110610Z 15005KT 23/15 A3014 RMK A01 T02340151  RH  062%=      5-min Rain = 0
KLES 110615Z 14005KT 23/15 A3014 RMK A01 T02330150  RH  062%=      5-min Rain = 0
KLES 110620Z 14005KT 23/15 A3014 RMK A01 T02320148  RH  062%=      5-min Rain = 0
KLES 110625Z 14004KT 23/15 A3014 RMK A01 T02300147  RH  062%=      5-min Rain = 0
KLES 110630Z 14004KT 23/15 A3014 RMK A01 T02280145  RH  062%=      5-min Rain = 0
KLES 110635Z 15004KT 23/15 A3014 RMK A01 T02270145  RH  062%=      5-min Rain = 0
KLES 110640Z 15004KT 23/15 A3014 RMK A01 T02250145  RH  063%=      5-min Rain = 0
KLES 110645Z 15003KT 22/15 A3014 RMK A01 T02230145  RH  064%=      5-min Rain = 0
KLES 110650Z 16003KT 22/15 A3014 RMK A01 T02210147  RH  066%=      5-min Rain = 0
KLES 110655Z 17003KT 22/15 A3014 RMK A01 T02180147  RH  067%=      5-min Rain = 0
KLES 110700Z 18003KT 22/15 A3014 RMK A01 T02160149  RH  068%=      5-min Rain = 0
KLES 110705Z 19003KT 22/15 A3014 RMK A01 T02160151  RH  070%=      5-min Rain = 0
KLES 110710Z 19005KT 22/15 A3014 RMK A01 T02150146  RH  068%=      5-min Rain = 0
KLES 110715Z 19005KT 22/15 A3013 RMK A01 T02170146  RH  067%=      5-min Rain = 0
KLES 110720Z 20006KT 22/15 A3013 RMK A01 T02160145  RH  067%=      5-min Rain = 0
KLES 110725Z 20007KT 22/15 A3013 RMK A01 T02150145  RH  068%=      5-min Rain = 0
KLES 110730Z 20007KT 22/14 A3013 RMK A01 T02150144  RH  067%=      5-min Rain = 0
KLES 110735Z 20007KT 21/14 A3013 RMK A01 T02140144  RH  067%=      5-min Rain = 0
KLES 110740Z 20007KT 22/14 A3013 RMK A01 T02160142  RH  065%=      5-min Rain = 0
KLES 110745Z 20006KT 22/14 A3013 RMK A01 T02170142  RH  065%=      5-min Rain = 0
KLES 110750Z 20005KT 22/14 A3013 RMK A01 T02160143  RH  066%=      5-min Rain = 0
KLES 110755Z 19005KT 21/14 A3013 RMK A01 T02140143  RH  067%=      5-min Rain = 0
KLES 110800Z 18005KT 21/14 A3013 RMK A01 T02120144  RH  068%=      5-min Rain = 0
KLES 110805Z 17004KT 21/14 A3013 RMK A01 T02100144  RH  069%=      5-min Rain = 0
KLES 110810Z 15003KT 21/14 A3013 RMK A01 T02100144  RH  069%=      5-min Rain = 0
KLES 110815Z 16003KT 21/15 A3013 RMK A01 T02100145  RH  069%=      5-min Rain = 0
KLES 110820Z 17004KT 21/15 A3013 RMK A01 T02100145  RH  069%=      5-min Rain = 0
KLES 110825Z 18005KT 21/15 A3013 RMK A01 T02090146  RH  070%=      5-min Rain = 0
KLES 110830Z 17005KT 21/15 A3013 RMK A01 T02070146  RH  071%=      5-min Rain = 0
KLES 110835Z 16004KT 21/15 A3013 RMK A01 T02050146  RH  072%=      5-min Rain = 0
KLES 110840Z 16004KT 20/15 A3013 RMK A01 T02040145  RH  072%=      5-min Rain = 0
KLES 110845Z 17005KT 21/14 A3013 RMK A01 T02050142  RH  070%=      5-min Rain = 0
KLES 110850Z 17005KT 21/14 A3013 RMK A01 T02070142  RH  069%=      5-min Rain = 0
KLES 110855Z 16005KT 21/14 A3013 RMK A01 T02080142  RH  069%=      5-min Rain = 0
KLES 110900Z 16004KT 21/14 A3013 RMK A01 T02080141  RH  069%=      5-min Rain = 0
KLES 110905Z 16004KT 21/14 A3013 RMK A01 T02080140  RH  068%=      5-min Rain = 0
KLES 110910Z 16004KT 21/14 A3013 RMK A01 T02090140  RH  068%=      5-min Rain = 0
KLES 110915Z 15005KT 21/14 A3013 RMK A01 T02090140  RH  067%=      5-min Rain = 0
KLES 110920Z 15005KT 21/14 A3013 RMK A01 T02110139  RH  066%=      5-min Rain = 0
KLES 110925Z 16005KT 21/14 A3013 RMK A01 T02120139  RH  066%=      5-min Rain = 0
KLES 110930Z 16006KT 21/14 A3013 RMK A01 T02140140  RH  066%=      5-min Rain = 0
KLES 110935Z 16006KT 21/14 A3013 RMK A01 T02140143  RH  066%=      5-min Rain = 0
KLES 110940Z 16005KT 21/14 A3013 RMK A01 T02130143  RH  067%=      5-min Rain = 0
KLES 110945Z 16005KT 21/14 A3013 RMK A01 T02110143  RH  068%=      5-min Rain = 0
KLES 110950Z 15005KT 21/14 A3012 RMK A01 T02100142  RH  068%=      5-min Rain = 0
KLES 110955Z 15006KT 21/14 A3013 RMK A01 T02120142  RH  067%=      5-min Rain = 0
KLES 111000Z 15006KT 22/14 A3013 RMK A01 T02150143  RH  066%=      5-min Rain = 0
KLES 111005Z 15007KT 22/14 A3013 RMK A01 T02170144  RH  066%=      5-min Rain = 0
KLES 111010Z 15007KT 22/15 A3013 RMK A01 T02170145  RH  066%=      5-min Rain = 0
KLES 111015Z 15007KT 22/15 A3013 RMK A01 T02170145  RH  067%=      5-min Rain = 0
KLES 111020Z 15006KT 22/15 A3013 RMK A01 T02160146  RH  067%=      5-min Rain = 0
KLES 111025Z 14006KT 22/15 A3012 RMK A01 T02150146  RH  068%=      5-min Rain = 0
KLES 111030Z 14005KT 21/15 A3013 RMK A01 T02140147  RH  069%=      5-min Rain = 0
KLES 111035Z 14006KT 21/15 A3013 RMK A01 T02120147  RH  069%=      5-min Rain = 0
KLES 111040Z 14005KT 21/15 A3013 RMK A01 T02110148  RH  070%=      5-min Rain = 0
KLES 111045Z 15006KT 21/15 A3013 RMK A01 T02110148  RH  071%=      5-min Rain = 0
KLES 111050Z 15005KT 21/15 A3013 RMK A01 T02110149  RH  071%=      5-min Rain = 0
KLES 111055Z 14005KT 21/15 A3013 RMK A01 T02100150  RH  072%=      5-min Rain = 0
KLES 111100Z 14005KT 21/15 A3013 RMK A01 T02100150  RH  072%=      5-min Rain = 0
KLES 111105Z 14005KT 21/15 A3013 RMK A01 T02090151  RH  073%=      5-min Rain = 0
KLES 111110Z 14005KT 21/15 A3013 RMK A01 T02090152  RH  073%=      5-min Rain = 0
KLES 111115Z 14005KT 21/15 A3013 RMK A01 T02090153  RH  074%=      5-min Rain = 0
KLES 111120Z 14005KT 21/15 A3013 RMK A01 T02080153  RH  074%=      5-min Rain = 0
KLES 111125Z 14005KT 21/15 A3013 RMK A01 T02080154  RH  074%=      5-min Rain = 0
KLES 111130Z 15005KT 21/15 A3013 RMK A01 T02070153  RH  075%=      5-min Rain = 0
KLES 111135Z 14005KT 21/15 A3013 RMK A01 T02070154  RH  075%=      5-min Rain = 0
KLES 111140Z 14005KT 21/15 A3014 RMK A01 T02060154  RH  075%=      5-min Rain = 0
KLES 111145Z 14005KT 21/15 A3014 RMK A01 T02060154  RH  075%=      5-min Rain = 0
KLES 111150Z 14004KT 20/15 A3014 RMK A01 T02040154  RH  076%=      5-min Rain = 0
KLES 111155Z 14005KT 20/15 A3014 RMK A01 T02030154  RH  077%=      5-min Rain = 0
KLES 111200Z 14005KT 20/15 A3014 RMK A01 T02020154  RH  077%=      5-min Rain = 0
KLES 111205Z 15005KT 20/15 A3014 RMK A01 T02020154  RH  077%=      5-min Rain = 0
KLES 111210Z 15005KT 20/15 A3014 RMK A01 T02040154  RH  077%=      5-min Rain = 0
KLES 111215Z 15006KT 20/16 A3014 RMK A01 T02040155  RH  077%=      5-min Rain = 0
KLES 111220Z 15006KT 21/16 A3015 RMK A01 T02060156  RH  077%=      5-min Rain = 0
KLES 111225Z 15006KT 21/16 A3014 RMK A01 T02080157  RH  076%=      5-min Rain = 0
KLES 111230Z 16006KT 21/16 A3014 RMK A01 T02100159  RH  076%=      5-min Rain = 0
KLES 111235Z 16006KT 21/16 A3014 RMK A01 T02120161  RH  076%=      5-min Rain = 0
KLES 111240Z 17006KT 21/16 A3015 RMK A01 T02130162  RH  076%=      5-min Rain = 0
KLES 111245Z 17006KT 22/16 A3015 RMK A01 T02150164  RH  076%=      5-min Rain = 0
KLES 111250Z 17005KT 22/17 A3015 RMK A01 T02160165  RH  076%=      5-min Rain = 0
KLES 111255Z 17007KT 22/17 A3015 RMK A01 T02180166  RH  076%=      5-min Rain = 0
KLES 111300Z 17007KT 22/17 A3015 RMK A01 T02200166  RH  075%=      5-min Rain = 0
KLES 111305Z 17008KT 22/17 A3015 RMK A01 T02230168  RH  075%=      5-min Rain = 0
KLES 111310Z 17009KT 23/17 A3015 RMK A01 T02250169  RH  074%=      5-min Rain = 0
KLES 111315Z 17008KT 23/17 A3015 RMK A01 T02270170  RH  074%=      5-min Rain = 0
KLES 111320Z 17009KT 23/17 A3015 RMK A01 T02280171  RH  074%=      5-min Rain = 0
KLES 111325Z 17010KT 23/17 A3015 RMK A01 T02300172  RH  073%=      5-min Rain = 0
KLES 111330Z 17012KT 23/17 A3015 RMK A01 T02320173  RH  073%=      5-min Rain = 0
KLES 111335Z 17010KT 23/17 A3015 RMK A01 T02340174  RH  073%=      5-min Rain = 0
KLES 111340Z 18012KT 24/18 A3015 RMK A01 T02350175  RH  073%=      5-min Rain = 0
KLES 111345Z 17012KT 24/18 A3015 RMK A01 T02360176  RH  073%=      5-min Rain = 0
KLES 111350Z 18010G15KT 24/18 A3015 RMK A01 T02380177  RH  072%=      5-min Rain = 0
KLES 111355Z 18012KT 24/18 A3015 RMK A01 T02390177  RH  072%=      5-min Rain = 0
KLES 111400Z 18014KT 24/18 A3016 RMK A01 T02400177  RH  071%=      5-min Rain = 0
KLES 111405Z 18012KT 24/18 A3016 RMK A01 T02430179  RH  071%=      5-min Rain = 0
KLES 111410Z 18011G16KT 25/18 A3016 RMK A01 T02460181  RH  071%=      5-min Rain = 0
KLES 111415Z 18012G17KT 25/18 A3016 RMK A01 T02490181  RH  069%=      5-min Rain = 0
KLES 111420Z 18014G19KT 25/18 A3016 RMK A01 T02500179  RH  068%=      5-min Rain = 0
KLES 111425Z 18012G18KT 25/18 A3016 RMK A01 T02510181  RH  068%=      5-min Rain = 0
KLES 111430Z 18013KT 25/18 A3016 RMK A01 T02530180  RH  067%=      5-min Rain = 0
KLES 111435Z 18013KT 26/18 A3016 RMK A01 T02560180  RH  066%=      5-min Rain = 0
KLES 111440Z 17013G18KT 26/18 A3016 RMK A01 T02580180  RH  065%=      5-min Rain = 0
KLES 111445Z 18013G19KT 26/18 A3016 RMK A01 T02590180  RH  065%=      5-min Rain = 0
KLES 111450Z 18014KT 26/18 A3015 RMK A01 T02600179  RH  064%=      5-min Rain = 0
KLES 111455Z 17014KT 26/18 A3015 RMK A01 T02620179  RH  063%=      5-min Rain = 0
KLES 111500Z 18013KT 26/18 A3015 RMK A01 T02640179  RH  063%=      5-min Rain = 0
KLES 111505Z 18013KT 27/18 A3015 RMK A01 T02660179  RH  062%=      5-min Rain = 0
KLES 111510Z 18012KT 27/18 A3015 RMK A01 T02680180  RH  062%=      5-min Rain = 0
KLES 111515Z 17013G19KT 27/18 A3015 RMK A01 T02720179  RH  060%=      5-min Rain = 0
KLES 111520Z 17013KT 27/18 A3015 RMK A01 T02720178  RH  059%=      5-min Rain = 0
KLES 111525Z 17012G17KT 28/18 A3015 RMK A01 T02750179  RH  059%=      5-min Rain = 0
KLES 111530Z 18012KT 28/18 A3015 RMK A01 T02780179  RH  058%=      5-min Rain = 0
KLES 111535Z 17014G20KT 28/18 A3015 RMK A01 T02790178  RH  057%=      5-min Rain = 0
KLES 111540Z 18014KT 28/18 A3015 RMK A01 T02770177  RH  057%=      5-min Rain = 0
KLES 111545Z 18013KT 28/18 A3015 RMK A01 T02780175  RH  056%=      5-min Rain = 0
KLES 111550Z 19013G18KT 28/18 A3015 RMK A01 T02800176  RH  056%=      5-min Rain = 0
KLES 111555Z 17014G19KT 28/18 A3015 RMK A01 T02830175  RH  055%=      5-min Rain = 0
KLES 111600Z 18012G17KT 28/18 A3015 RMK A01 T02840176  RH  055%=      5-min Rain = 0
KLES 111605Z 18013KT 28/17 A3015 RMK A01 T02840174  RH  054%=      5-min Rain = 0
KLES 111610Z 19013G18KT 29/17 A3015 RMK A01 T02860174  RH  053%=      5-min Rain = 0
KLES 111615Z 17012KT 29/17 A3015 RMK A01 T02880172  RH  052%=      5-min Rain = 0
KLES 111620Z 18012KT 29/17 A3015 RMK A01 T02910174  RH  052%=      5-min Rain = 0
KLES 111625Z 18012KT 29/17 A3015 RMK A01 T02910173  RH  051%=      5-min Rain = 0
KLES 111630Z 18012G17KT 29/17 A3015 RMK A01 T02900173  RH  052%=      5-min Rain = 0
KLES 111635Z 17012KT 29/17 A3015 RMK A01 T02930170  RH  050%=      5-min Rain = 0
KLES 111640Z 19011KT 30/17 A3015 RMK A01 T02950172  RH  050%=      5-min Rain = 0
KLES 111645Z 19013KT 30/17 A3015 RMK A01 T02960168  RH  048%=      5-min Rain = 0
KLES 111650Z 19012KT 30/17 A3015 RMK A01 T02970166  RH  048%=      5-min Rain = 0
KLES 111655Z 17012KT 30/16 A3015 RMK A01 T03000161  RH  045%=      5-min Rain = 0
KLES 111700Z 18010KT 30/16 A3015 RMK A01 T03020160  RH  044%=      5-min Rain = 0
KLES 111705Z 18011G17KT 30/16 A3015 RMK A01 T03020164  RH  046%=      5-min Rain = 0
KLES 111710Z 16011G16KT 31/16 A3015 RMK A01 T03060157  RH  043%=      5-min Rain = 0
KLES 111715Z 17010G15KT 31/16 A3015 RMK A01 T03080157  RH  042%=      5-min Rain = 0
KLES 111720Z 18010G16KT 31/15 A3015 RMK A01 T03070153  RH  041%=      5-min Rain = 0
KLES 111725Z 18012G19KT 31/16 A3015 RMK A01 T03060156  RH  042%=      5-min Rain = 0
KLES 111730Z 18010G15KT 31/16 A3015 RMK A01 T03070156  RH  042%=      5-min Rain = 0
KLES 111735Z 18011G16KT 30/16 A3015 RMK A01 T03040160  RH  044%=      5-min Rain = 0
KLES 111740Z 16011KT 31/15 A3014 RMK A01 T03060146  RH  040%=      5-min Rain = 0
KLES 111745Z 17012G20KT 31/15 A3014 RMK A01 T03120148  RH  039%=      5-min Rain = 0
KLES 111750Z 17012G18KT 31/15 A3014 RMK A01 T03120150  RH  039%=      5-min Rain = 0
KLES 111755Z 17013G19KT 32/15 A3014 RMK A01 T03150146  RH  037%=      5-min Rain = 0
KLES 111800Z 16014G19KT 32/14 A3013 RMK A01 T03170143  RH  036%=      5-min Rain = 0
KLES 111805Z 17012G21KT 32/14 A3013 RMK A01 T03160143  RH  037%=      5-min Rain = 0
KLES 111810Z 16015G21KT 32/14 A3013 RMK A01 T03160140  RH  036%=      5-min Rain = 0
KLES 111815Z 15013G19KT 32/14 A3013 RMK A01 T03190143  RH  036%=      5-min Rain = 0
KLES 111820Z 16014KT 32/14 A3013 RMK A01 T03200142  RH  036%=      5-min Rain = 0
KLES 111825Z 17015G23KT 32/14 A3012 RMK A01 T03170142  RH  036%=      5-min Rain = 0
KLES 111830Z 16015G20KT 32/14 A3012 RMK A01 T03200140  RH  035%=      5-min Rain = 0
KLES 111835Z 17013G18KT 32/14 A3012 RMK A01 T03200138  RH  035%=      5-min Rain = 0
KLES 111840Z 15014KT 32/14 A3011 RMK A01 T03220138  RH  034%=      5-min Rain = 0
KLES 111845Z 16015G24KT 32/14 A3011 RMK A01 T03240136  RH  033%=      5-min Rain = 0
KLES 111850Z 16012G17KT 32/14 A3011 RMK A01 T03240136  RH  033%=      5-min Rain = 0
KLES 111855Z 14014G20KT 33/14 A301 RMK A01 T03250137  RH  033%=      5-min Rain = 0
KLES 111900Z 15012KT 33/14 A3011 RMK A01 T03300136  RH  032%=      5-min Rain = 0
KLES 111905Z 17013G19KT 33/14 A3011 RMK A01 T03270136  RH  033%=      5-min Rain = 0
KLES 111910Z 16014G22KT 33/14 A301 RMK A01 T03290136  RH  032%=      5-min Rain = 0
KLES 111915Z 16014G20KT 33/13 A301 RMK A01 T03270133  RH  032%=      5-min Rain = 0
KLES 111920Z 17013G22KT 33/14 A301 RMK A01 T03320136  RH  032%=      5-min Rain = 0
KLES 111925Z 18014G21KT 33/14 A301 RMK A01 T03270136  RH  033%=      5-min Rain = 0
KLES 111930Z 17013G18KT 33/14 A301 RMK A01 T03280135  RH  032%=      5-min Rain = 0
KLES 111935Z 17014G20KT 33/14 A3009 RMK A01 T03320141  RH  033%=      5-min Rain = 0
KLES 111940Z 15013G18KT 34/13 A3009 RMK A01 T03350132  RH  030%=      5-min Rain = 0
KLES 111945Z 16016G21KT 33/13 A3009 RMK A01 T03290132  RH  032%=      5-min Rain = 0
KLES 111950Z 18013G19KT 33/14 A3009 RMK A01 T03260139  RH  034%=      5-min Rain = 0
KLES 111955Z 16013G21KT 33/13 A3008 RMK A01 T03290134  RH  032%=      5-min Rain = 0
KLES 112000Z 16012G18KT 33/13 A3008 RMK A01 T03250133  RH  033%=      5-min Rain = 0
KLES 112005Z 16015KT 33/13 A3008 RMK A01 T03310134  RH  032%=      5-min Rain = 0
KLES 112010Z 17013G18KT 34/14 A3007 RMK A01 T03370137  RH  031%=      5-min Rain = 0
KLES 112015Z 18012G18KT 33/14 A3007 RMK A01 T03300139  RH  033%=      5-min Rain = 0
KLES 112020Z 17013G22KT 33/14 A3007 RMK A01 T03340137  RH  032%=      5-min Rain = 0
KLES 112025Z 18014G20KT 33/13 A3007 RMK A01 T03320134  RH  031%=      5-min Rain = 0
KLES 112030Z 18014G19KT 33/14 A3006 RMK A01 T03300138  RH  033%=      5-min Rain = 0
KLES 112035Z 17014KT 33/14 A3006 RMK A01 T03320137  RH  032%=      5-min Rain = 0
KLES 112040Z 17015G20KT 34/14 A3006 RMK A01 T03350137  RH  032%=      5-min Rain = 0
KLES 112045Z 17015G20KT 33/14 A3006 RMK A01 T03320135  RH  032%=      5-min Rain = 0
KLES 112050Z 17015G22KT 33/14 A3006 RMK A01 T03300135  RH  032%=      5-min Rain = 0
KLES 112055Z 17013G19KT 33/13 A3005 RMK A01 T03320133  RH  031%=      5-min Rain = 0
KLES 112100Z 16014G19KT 33/13 A3005 RMK A01 T03300134  RH  032%=      5-min Rain = 0
KLES 112105Z 17013G18KT 33/14 A3005 RMK A01 T03340135  RH  031%=      5-min Rain = 0
KLES 112110Z 18014G20KT 34/14 A3005 RMK A01 T03350141  RH  032%=      5-min Rain = 0
KLES 112115Z 17013G20KT 33/14 A3004 RMK A01 T03320136  RH  032%=      5-min Rain = 0
KLES 112120Z 17014G20KT 33/14 A3004 RMK A01 T03310135  RH  032%=      5-min Rain = 0
KLES 112125Z 17015KT 33/14 A3004 RMK A01 T03310135  RH  032%=      5-min Rain = 0
KLES 112130Z 17012KT 33/13 A3004 RMK A01 T03270133  RH  032%=      5-min Rain = 0
KLES 112135Z 16010G18KT 34/14 A3003 RMK A01 T03360135  RH  031%=      5-min Rain = 0
KLES 112140Z 18013G18KT 34/14 A3003 RMK A01 T03400137  RH  031%=      5-min Rain = 0
KLES 112145Z 19011G25KT 34/14 A3003 RMK A01 T03370138  RH  031%=      5-min Rain = 0
KLES 112150Z 19015G22KT 34/14 A3003 RMK A01 T03370137  RH  031%=      5-min Rain = 0
KLES 112155Z 19012G18KT 34/14 A3003 RMK A01 T03370139  RH  032%=      5-min Rain = 0
KLES 112200Z 19012G18KT 34/14 A3003 RMK A01 T03370139  RH  032%=      5-min Rain = 0
KLES 112205Z 20011KT 33/14 A3002 RMK A01 T03340136  RH  032%=      5-min Rain = 0
KLES 112210Z 18012G19KT 33/14 A3002 RMK A01 T03340138  RH  032%=      5-min Rain = 0
KLES 112215Z 18013G20KT 33/14 A3002 RMK A01 T03280136  RH  033%=      5-min Rain = 0
KLES 112220Z 18012KT 33/14 A3002 RMK A01 T03280136  RH  033%=      5-min Rain = 0
KLES 112225Z 18011G16KT 33/14 A3002 RMK A01 T03290135  RH  032%=      5-min Rain = 0
KLES 112230Z 18012G17KT 33/14 A3002 RMK A01 T03290137  RH  033%=      5-min Rain = 0
KLES 112235Z 18011G16KT 32/13 A3002 RMK A01 T03230134  RH  033%=      5-min Rain = 0
KLES 112240Z 18011G16KT 32/13 A3002 RMK A01 T03240134  RH  033%=      5-min Rain = 0
KLES 112245Z 18013KT 32/13 A3002 RMK A01 T03240133  RH  033%=      5-min Rain = 0
KLES 112250Z 18013KT 33/13 A3002 RMK A01 T03260133  RH  032%=      5-min Rain = 0
KLES 112255Z 18012G17KT 33/14 A3002 RMK A01 T03320135  RH  032%=      5-min Rain = 0
KLES 112300Z 17014KT 33/13 A3002 RMK A01 T03310130  RH  031%=      5-min Rain = 0
KLES 112305Z 17011KT 33/13 A3002 RMK A01 T03280131  RH  031%=      5-min Rain = 0
KLES 112310Z 18013G19KT 33/13 A3002 RMK A01 T03320133  RH  031%=      5-min Rain = 0
KLES 112315Z 17012KT 33/13 A3002 RMK A01 T03280132  RH  032%=      5-min Rain = 0
KLES 112320Z 18010KT 32/13 A3002 RMK A01 T03240131  RH  032%=      5-min Rain = 0
KLES 112325Z 18009KT 32/13 A3002 RMK A01 T03230133  RH  033%=      5-min Rain = 0
KLES 112330Z 17011KT 33/13 A3001 RMK A01 T03250131  RH  032%=      5-min Rain = 0
KLES 112335Z 18011KT 32/13 A3001 RMK A01 T03210132  RH  033%=      5-min Rain = 0
KLES 112340Z 18012KT 32/13 A3001 RMK A01 T03220131  RH  033%=      5-min Rain = 0
KLES 112345Z 18011G16KT 32/13 A3001 RMK A01 T03240133  RH  033%=      5-min Rain = 0
KLES 112350Z 18011KT 33/13 A3001 RMK A01 T03250133  RH  032%=      5-min Rain = 0
KLES 112355Z 19011G16KT 32/13 A3001 RMK A01 T03240133  RH  033%=      5-min Rain = 0
KLES 120000Z 20010G15KT 33/13 A3001 RMK A01 T03250134  RH  033%=      5-min Rain = 0
KLES 120005Z 19012KT 33/13 A3001 RMK A01 T03270133  RH  032%=      5-min Rain = 0
KLES 120010Z 18011G17KT 33/13 A3001 RMK A01 T03290133  RH  032%=      5-min Rain = 0
KLES 120015Z 19011KT 33/13 A3001 RMK A01 T03280132  RH  032%=      5-min Rain = 0
KLES 120020Z 18011KT 33/14 A3001 RMK A01 T03280135  RH  032%=      5-min Rain = 0
KLES 120025Z 18012KT 33/13 A3001 RMK A01 T03290133  RH  032%=      5-min Rain = 0
KLES 120030Z 18011G17KT 33/13 A3001 RMK A01 T03300133  RH  031%=      5-min Rain = 0
KLES 120035Z 18010G16KT 33/14 A3001 RMK A01 T03290136  RH  032%=      5-min Rain = 0
KLES 120040Z 18012KT 33/13 A3001 RMK A01 T03270133  RH  032%=      5-min Rain = 0
KLES 120045Z 19010G16KT 33/14 A3001 RMK A01 T03270135  RH  033%=      5-min Rain = 0
KLES 120050Z 19013KT 32/13 A3001 RMK A01 T03240131  RH  032%=      5-min Rain = 0
KLES 120055Z 19011KT 32/13 A3002 RMK A01 T03220132  RH  033%=      5-min Rain = 0
KLES 120100Z 19010KT 32/13 A3002 RMK A01 T03200133  RH  033%=      5-min Rain = 0
KLES 120105Z 16012G17KT 32/13 A3002 RMK A01 T03200132  RH  033%=      5-min Rain = 0
KLES 120110Z 17009KT 32/13 A3002 RMK A01 T03200133  RH  033%=      5-min Rain = 0
KLES 120115Z 18011KT 32/13 A3002 RMK A01 T03160132  RH  034%=      5-min Rain = 0
KLES 120120Z 17009G14KT 31/13 A3002 RMK A01 T03140132  RH  034%=      5-min Rain = 0
KLES 120125Z 16011G16KT 31/13 A3002 RMK A01 T03140131  RH  034%=      5-min Rain = 0
KLES 120130Z 16010KT 31/13 A3002 RMK A01 T03140129  RH  034%=      5-min Rain = 0
KLES 120135Z 15010KT 31/13 A3003 RMK A01 T03130130  RH  034%=      5-min Rain = 0
KLES 120140Z 16010KT 31/13 A3003 RMK A01 T03120130  RH  034%=      5-min Rain = 0
KLES 120145Z 16010KT 31/13 A3003 RMK A01 T03110130  RH  035%=      5-min Rain = 0
KLES 120150Z 16008KT 31/13 A3003 RMK A01 T03090132  RH  035%=      5-min Rain = 0
KLES 120155Z 16007KT 31/13 A3003 RMK A01 T03050133  RH  036%=      5-min Rain = 0
KLES 120200Z 16010KT 30/13 A3003 RMK A01 T03040131  RH  036%=      5-min Rain = 0
KLES 120205Z 16008KT 30/13 A3004 RMK A01 T03030132  RH  037%=      5-min Rain = 0
KLES 120210Z 16008KT 30/14 A3004 RMK A01 T02980135  RH  038%=      5-min Rain = 0
KLES 120215Z 17007KT 30/14 A3004 RMK A01 T02950135  RH  039%=      5-min Rain = 0
KLES 120220Z 17007KT 29/14 A3004 RMK A01 T02910137  RH  041%=      5-min Rain = 0
KLES 120225Z 16007KT 29/14 A3004 RMK A01 T02880136  RH  041%=      5-min Rain = 0
KLES 120230Z 15008KT 29/13 A3004 RMK A01 T02920132  RH  039%=      5-min Rain = 0
KLES 120235Z 15008KT 29/13 A3005 RMK A01 T02920132  RH  039%=      5-min Rain = 0
KLES 120240Z 16007KT 29/13 A3005 RMK A01 T02910133  RH  039%=      5-min Rain = 0
KLES 120245Z 15007KT 29/13 A3005 RMK A01 T02890133  RH  040%=      5-min Rain = 0
KLES 120250Z 16007KT 29/13 A3005 RMK A01 T02880133  RH  040%=      5-min Rain = 0
KLES 120255Z 15007KT 29/13 A3005 RMK A01 T02860133  RH  041%=      5-min Rain = 0
KLES 120300Z 15007KT 29/13 A3006 RMK A01 T02850134  RH  041%=      5-min Rain = 0
KLES 120305Z 15007KT 28/13 A3006 RMK A01 T02840134  RH  041%=      5-min Rain = 0
KLES 120310Z 15007KT 28/14 A3006 RMK A01 T02830135  RH  042%=      5-min Rain = 0
KLES 120315Z 15006KT 28/14 A3006 RMK A01 T02810135  RH  042%=      5-min Rain = 0
KLES 120320Z 15006KT 28/14 A3007 RMK A01 T02800135  RH  043%=      5-min Rain = 0
KLES 120325Z 15006KT 28/14 A3007 RMK A01 T02790135  RH  043%=      5-min Rain = 0
KLES 120330Z 16006KT 28/14 A3007 RMK A01 T02770135  RH  043%=      5-min Rain = 0
KLES 120335Z 16006KT 28/13 A3007 RMK A01 T02760134  RH  043%=      5-min Rain = 0
KLES 120340Z 16005KT 28/14 A3007 RMK A01 T02750135  RH  044%=      5-min Rain = 0
KLES 120345Z 15005KT 27/14 A3008 RMK A01 T02740135  RH  044%=      5-min Rain = 0
KLES 120350Z 16005KT 27/14 A3008 RMK A01 T02720135  RH  045%=      5-min Rain = 0
KLES 120355Z 16005KT 27/14 A3008 RMK A01 T02700135  RH  045%=      5-min Rain = 0
KLES 120400Z 16005KT 27/14 A3008 RMK A01 T02680135  RH  046%=      5-min Rain = 0
KLES 120405Z 15006KT 27/14 A3008 RMK A01 T02650136  RH  047%=      5-min Rain = 0
KLES 120410Z 15006KT 27/13 A3008 RMK A01 T02660134  RH  046%=      5-min Rain = 0
KLES 120415Z 15007KT 27/13 A3008 RMK A01 T02680134  RH  046%=      5-min Rain = 0
KLES 120420Z 16006KT 27/14 A3008 RMK A01 T02660135  RH  046%=      5-min Rain = 0
KLES 120425Z 16006KT 26/14 A3008 RMK A01 T02630137  RH  048%=      5-min Rain = 0
KLES 120430Z 16006KT 26/14 A3009 RMK A01 T02590139  RH  049%=      5-min Rain = 0
KLES 120435Z 17006KT 25/14 A3009 RMK A01 T02540142  RH  052%=      5-min Rain = 0
KLES 120440Z 17006KT 25/15 A3009 RMK A01 T02490145  RH  055%=      5-min Rain = 0
KLES 120445Z 17006KT 24/15 A3009 RMK A01 T02430149  RH  058%=      5-min Rain = 0
KLES 120450Z 17006KT 24/15 A3009 RMK A01 T02380151  RH  061%=      5-min Rain = 0
KLES 120455Z 17007KT 24/15 A3009 RMK A01 T02370147  RH  059%=      5-min Rain = 0
KLES 120500Z 17007KT 24/14 A3009 RMK A01 T02400143  RH  057%=      5-min Rain = 0

Page generated in 0.0145 seconds.